Time;durP1;ratioP1;P1;durP2;ratioP2;P2;SDS_P1;SDS_P2;PMS_P1;PMS_P2;Temp;Humidity;BMP_temperature;BMP_pressure;BME280_temperature;BME280_humidity;BME280_pressure;Samples;Min_cycle;Max_cycle;Signal;HPM_P1;HPM_P2
2021/07/25 00:00:08;;;;;;;;;;;19.80;99.90;;;;;;5085955;28;19919;-51
2021/07/25 00:02:34;;;;;;;;;;;19.80;99.90;;;;;;5088292;28;19912;-55
2021/07/25 00:05:00;;;;;;;;;;;19.80;99.90;;;;;;5090195;28;19954;-51
2021/07/25 00:07:25;;;;;;;;;;;19.80;99.90;;;;;;5087046;28;19915;-52
2021/07/25 00:09:51;;;;;;;;;;;19.70;99.90;;;;;;5089407;28;19924;-52
2021/07/25 00:12:16;;;;;;;;;;;19.70;99.90;;;;;;5085815;28;19908;-55
2021/07/25 00:14:42;;;;;;;;;;;19.70;99.90;;;;;;5087985;28;19998;-53
2021/07/25 00:17:08;;;;;;;;;;;19.70;99.90;;;;;;5085292;28;19994;-53
2021/07/25 00:19:35;;;;;;;;;;;19.70;99.90;;;;;;5087956;28;20003;-52
2021/07/25 00:22:02;;;;;;;;;;;19.70;99.90;;;;;;5089892;28;20000;-52
2021/07/25 00:24:32;;;;;;;;;;;19.60;99.90;;;;;;5086848;28;19908;-52
2021/07/25 00:27:00;;;;;;;;;;;19.60;99.90;;;;;;5089304;28;19912;-53
2021/07/25 00:29:28;;;;;;;;;;;19.60;99.90;;;;;;5085947;28;19951;-52
2021/07/25 00:31:54;;;;;;;;;;;19.60;99.90;;;;;;5088533;28;19909;-56
2021/07/25 00:34:19;;;;;;;;;;;19.70;99.90;;;;;;5066950;28;19961;-53
2021/07/25 00:36:45;;;;;;;;;;;19.60;99.90;;;;;;5087286;28;19962;-52
2021/07/25 00:39:11;;;;;;;;;;;19.60;99.90;;;;;;5090080;28;19962;-52
2021/07/25 00:41:36;;;;;;;;;;;19.60;99.90;;;;;;5086963;28;19912;-54
2021/07/25 00:44:02;;;;;;;;;;;19.60;99.90;;;;;;5086988;28;19916;-53
2021/07/25 00:46:28;;;;;;;;;;;19.70;99.90;;;;;;5088759;28;20348;-56
2021/07/25 00:48:54;;;;;;;;;;;19.60;99.90;;;;;;5089711;28;19912;-53
2021/07/25 00:51:19;;;;;;;;;;;19.60;99.90;;;;;;5086044;28;20284;-54
2021/07/25 00:53:47;;;;;;;;;;;19.60;99.90;;;;;;5088065;28;20302;-52
2021/07/25 00:56:13;;;;;;;;;;;19.60;99.90;;;;;;5083260;28;19916;-52
2021/07/25 00:58:39;;;;;;;;;;;19.60;99.90;;;;;;5089037;28;20285;-52
2021/07/25 01:01:06;;;;;;;;;;;19.60;99.90;;;;;;5080424;28;20593;-52
2021/07/25 01:03:48;;;;;;;;;;;19.60;99.90;;;;;;5086901;28;19912;-55
2021/07/25 01:06:27;;;;;;;;;;;19.60;99.90;;;;;;5086719;28;19959;-55
2021/07/25 01:08:56;;;;;;;;;;;19.60;99.90;;;;;;5086180;28;19915;-53
2021/07/25 01:11:23;;;;;;;;;;;19.60;99.90;;;;;;5085899;28;19912;-56
2021/07/25 01:13:51;;;;;;;;;;;19.60;99.90;;;;;;5087779;28;19958;-56
2021/07/25 01:16:19;;;;;;;;;;;19.60;99.90;;;;;;5078795;28;19914;-56
2021/07/25 01:18:45;;;;;;;;;;;19.60;99.90;;;;;;5085921;28;19962;-57
2021/07/25 01:21:12;;;;;;;;;;;19.60;99.90;;;;;;5089598;28;19934;-57
2021/07/25 01:23:37;;;;;;;;;;;19.60;99.90;;;;;;5086246;28;19969;-54
2021/07/25 01:26:03;;;;;;;;;;;19.60;99.90;;;;;;5092052;28;19908;-56
2021/07/25 01:28:33;;;;;;;;;;;19.60;99.90;;;;;;5089500;28;20322;-55
2021/07/25 01:31:00;;;;;;;;;;;19.60;99.90;;;;;;5092033;28;19966;-54
2021/07/25 01:33:27;;;;;;;;;;;19.60;99.90;;;;;;5088851;28;19912;-56
2021/07/25 01:35:52;;;;;;;;;;;19.60;99.90;;;;;;5072053;28;19908;-56
2021/07/25 01:38:18;;;;;;;;;;;19.60;99.90;;;;;;5093652;28;19912;-56
2021/07/25 01:40:59;;;;;;;;;;;19.50;99.90;;;;;;5089868;28;19908;-57
2021/07/25 01:43:25;;;;;;;;;;;19.50;99.90;;;;;;5101119;22;19931;-62
2021/07/25 01:45:50;;;;;;;;;;;19.50;99.90;;;;;;5068403;28;19909;-63
2021/07/25 01:48:16;;;;;;;;;;;19.40;99.90;;;;;;5073164;28;19909;-63
2021/07/25 01:50:41;;;;;;;;;;;19.40;99.90;;;;;;5073183;28;19912;-62
2021/07/25 01:53:07;;;;;;;;;;;19.40;99.90;;;;;;5072902;28;20405;-63
2021/07/25 01:55:32;;;;;;;;;;;19.40;99.90;;;;;;5072929;28;19915;-62
2021/07/25 01:57:57;;;;;;;;;;;19.40;99.90;;;;;;5073111;28;20213;-62
2021/07/25 02:00:23;;;;;;;;;;;19.30;99.90;;;;;;5055396;28;19908;-63
2021/07/25 02:02:48;;;;;;;;;;;19.40;99.90;;;;;;5073128;28;19916;-60
2021/07/25 02:05:14;;;;;;;;;;;19.30;99.90;;;;;;5072628;28;20418;-62
2021/07/25 02:07:39;;;;;;;;;;;19.30;99.90;;;;;;5073038;28;20454;-63
2021/07/25 02:10:05;;;;;;;;;;;19.30;99.90;;;;;;5054746;28;19912;-63
2021/07/25 02:12:30;;;;;;;;;;;19.30;99.90;;;;;;5072547;28;20298;-62
2021/07/25 02:14:56;;;;;;;;;;;19.20;99.90;;;;;;5072062;28;19974;-63
2021/07/25 02:17:21;;;;;;;;;;;19.20;99.90;;;;;;5072359;28;20259;-63
2021/07/25 02:19:47;;;;;;;;;;;19.20;99.90;;;;;;5072766;28;19962;-62
2021/07/25 02:22:12;;;;;;;;;;;19.20;99.90;;;;;;5054540;28;19916;-61
2021/07/25 02:24:40;;;;;;;;;;;19.10;99.90;;;;;;5072374;28;19909;-63
2021/07/25 02:27:05;;;;;;;;;;;19.10;99.90;;;;;;5072479;28;19916;-62
2021/07/25 02:29:31;;;;;;;;;;;19.10;99.90;;;;;;5073108;28;19916;-62
2021/07/25 02:31:56;;;;;;;;;;;19.10;99.90;;;;;;5072575;28;19995;-63
2021/07/25 02:34:22;;;;;;;;;;;19.10;99.90;;;;;;5072273;28;19916;-63
2021/07/25 02:36:47;;;;;;;;;;;19.10;99.90;;;;;;5070373;28;20000;-61
2021/07/25 02:39:13;;;;;;;;;;;19.10;99.90;;;;;;5072197;28;19915;-62
2021/07/25 02:41:38;;;;;;;;;;;19.10;99.90;;;;;;5069992;28;19917;-63
2021/07/25 02:44:04;;;;;;;;;;;19.10;99.90;;;;;;5061125;28;19917;-63
2021/07/25 02:46:30;;;;;;;;;;;19.00;99.90;;;;;;5054413;28;19912;-63
2021/07/25 02:48:55;;;;;;;;;;;19.00;99.90;;;;;;5072308;28;19909;-62
2021/07/25 02:51:21;;;;;;;;;;;19.00;99.90;;;;;;5072150;28;19912;-62
2021/07/25 02:53:46;;;;;;;;;;;19.00;99.90;;;;;;5071891;28;19908;-61
2021/07/25 02:56:12;;;;;;;;;;;19.00;99.90;;;;;;5053885;28;19909;-62
2021/07/25 02:58:37;;;;;;;;;;;19.00;99.90;;;;;;5072218;28;19909;-61
2021/07/25 03:01:10;;;;;;;;;;;19.00;99.90;;;;;;5072168;28;20398;-61
2021/07/25 03:03:36;;;;;;;;;;;19.00;99.90;;;;;;5071882;28;20054;-62
2021/07/25 03:06:01;;;;;;;;;;;18.90;99.90;;;;;;5071418;28;19909;-62
2021/07/25 03:08:26;;;;;;;;;;;19.00;99.90;;;;;;5071928;28;19909;-62
2021/07/25 03:10:52;;;;;;;;;;;18.90;99.90;;;;;;5071449;28;19926;-63
2021/07/25 03:13:17;;;;;;;;;;;19.00;99.90;;;;;;5053546;28;19916;-61
2021/07/25 03:15:43;;;;;;;;;;;19.00;99.90;;;;;;5053381;28;19909;-62
2021/07/25 03:18:08;;;;;;;;;;;18.90;99.90;;;;;;5071548;28;20386;-62
2021/07/25 03:20:34;;;;;;;;;;;19.00;99.90;;;;;;5053546;28;19916;-62
2021/07/25 03:22:59;;;;;;;;;;;18.90;99.90;;;;;;5053166;28;19908;-62
2021/07/25 03:25:25;;;;;;;;;;;18.90;99.90;;;;;;5052945;28;19909;-62
2021/07/25 03:27:50;;;;;;;;;;;18.90;99.90;;;;;;5053364;28;19987;-61
2021/07/25 03:30:16;;;;;;;;;;;18.90;99.90;;;;;;5071479;28;20304;-61
2021/07/25 03:32:41;;;;;;;;;;;18.90;99.90;;;;;;5071058;28;19908;-62
2021/07/25 03:35:07;;;;;;;;;;;18.90;99.90;;;;;;5070762;28;19912;-62
2021/07/25 03:37:33;;;;;;;;;;;18.90;99.90;;;;;;5053231;28;19974;-61
2021/07/25 03:39:59;;;;;;;;;;;18.90;99.90;;;;;;5052715;28;19909;-61
2021/07/25 03:42:24;;;;;;;;;;;18.90;99.90;;;;;;5070797;28;19916;-62
2021/07/25 03:44:50;;;;;;;;;;;18.90;99.90;;;;;;5070383;28;19916;-61
2021/07/25 03:47:15;;;;;;;;;;;18.90;99.90;;;;;;5070256;28;20003;-62
2021/07/25 03:49:41;;;;;;;;;;;18.90;99.90;;;;;;5070697;28;19916;-61
2021/07/25 03:52:07;;;;;;;;;;;18.90;99.90;;;;;;5070470;28;20062;-61
2021/07/25 03:54:34;;;;;;;;;;;18.90;99.90;;;;;;5070262;28;20045;-61
2021/07/25 03:56:59;;;;;;;;;;;18.90;99.90;;;;;;5070638;28;19909;-61
2021/07/25 03:59:25;;;;;;;;;;;18.90;99.90;;;;;;5070924;28;19909;-62
2021/07/25 04:01:50;;;;;;;;;;;18.90;99.90;;;;;;5070523;28;19920;-60
2021/07/25 04:04:16;;;;;;;;;;;18.90;99.90;;;;;;5070541;28;20375;-62
2021/07/25 04:06:41;;;;;;;;;;;18.90;99.90;;;;;;5070385;28;20061;-61
2021/07/25 04:09:06;;;;;;;;;;;18.90;99.90;;;;;;5070180;28;19919;-62
2021/07/25 04:11:32;;;;;;;;;;;18.90;99.90;;;;;;5070455;28;20555;-62
2021/07/25 04:13:58;;;;;;;;;;;18.90;99.90;;;;;;5070293;28;19915;-61
2021/07/25 04:16:23;;;;;;;;;;;18.90;99.90;;;;;;5070152;28;19908;-61
2021/07/25 04:18:48;;;;;;;;;;;18.90;99.90;;;;;;5070262;28;19915;-62
2021/07/25 04:21:14;;;;;;;;;;;18.90;99.90;;;;;;5052201;28;19954;-61
2021/07/25 04:23:40;;;;;;;;;;;18.80;99.90;;;;;;5051716;28;19917;-62
2021/07/25 04:26:05;;;;;;;;;;;18.90;99.90;;;;;;5069998;28;19908;-61
2021/07/25 04:28:31;;;;;;;;;;;18.80;99.90;;;;;;5070704;28;19908;-62
2021/07/25 04:30:57;;;;;;;;;;;18.90;99.90;;;;;;5070238;28;19916;-61
2021/07/25 04:33:22;;;;;;;;;;;18.90;99.90;;;;;;5052034;28;19962;-62
2021/07/25 04:35:48;;;;;;;;;;;18.90;99.90;;;;;;5051721;28;19962;-61
2021/07/25 04:38:14;;;;;;;;;;;18.90;99.90;;;;;;5070191;28;19909;-63
2021/07/25 04:40:40;;;;;;;;;;;18.90;99.90;;;;;;5052179;28;19944;-62
2021/07/25 04:43:08;;;;;;;;;;;18.90;99.90;;;;;;5069455;28;20027;-61
2021/07/25 04:45:42;;;;;;;;;;;19.00;99.90;;;;;;5069920;28;19955;-61
2021/07/25 04:48:08;;;;;;;;;;;19.00;99.90;;;;;;5052023;28;19916;-60
2021/07/25 04:50:39;;;;;;;;;;;19.00;99.90;;;;;;5051877;28;19913;-61
2021/07/25 04:53:05;;;;;;;;;;;19.00;99.90;;;;;;5069948;28;19909;-60
2021/07/25 04:55:31;;;;;;;;;;;19.00;99.90;;;;;;5069712;28;19912;-61
2021/07/25 04:58:04;;;;;;;;;;;19.00;99.90;;;;;;5070306;28;19909;-62
2021/07/25 05:00:30;;;;;;;;;;;19.00;99.90;;;;;;5074136;28;19909;-60
2021/07/25 05:03:00;;;;;;;;;;;19.00;99.90;;;;;;5073998;28;19981;-61
2021/07/25 05:05:26;;;;;;;;;;;19.00;99.90;;;;;;5073668;28;20467;-61
2021/07/25 05:07:52;;;;;;;;;;;19.10;99.90;;;;;;5074001;28;19951;-62
2021/07/25 05:10:18;;;;;;;;;;;19.20;99.90;;;;;;5073835;28;20015;-62
2021/07/25 05:12:48;;;;;;;;;;;19.20;99.90;;;;;;5073501;28;19948;-62
2021/07/25 05:15:23;;;;;;;;;;;19.30;99.90;;;;;;5055848;28;19916;-61
2021/07/25 05:17:56;;;;;;;;;;;19.30;99.90;;;;;;5070339;28;19916;-61
2021/07/25 05:20:29;;;;;;;;;;;19.40;99.90;;;;;;5067294;28;19908;-62
2021/07/25 05:23:12;;;;;;;;;;;19.50;99.90;;;;;;5070722;28;19955;-62
2021/07/25 05:25:39;;;;;;;;;;;19.50;99.90;;;;;;5073382;28;19915;-62
2021/07/25 05:28:05;;;;;;;;;;;19.60;99.90;;;;;;5073808;28;19962;-62
2021/07/25 05:30:31;;;;;;;;;;;19.60;99.90;;;;;;5055538;28;19986;-60
2021/07/25 05:32:57;;;;;;;;;;;19.70;99.90;;;;;;5073134;28;19912;-62
2021/07/25 05:35:22;;;;;;;;;;;19.70;99.90;;;;;;5055186;28;19908;-62
2021/07/25 05:37:48;;;;;;;;;;;19.70;99.90;;;;;;5073233;28;20405;-61
2021/07/25 05:40:14;;;;;;;;;;;19.80;99.90;;;;;;5073269;28;19909;-61
2021/07/25 05:42:41;;;;;;;;;;;19.80;99.90;;;;;;5072785;28;19916;-62
2021/07/25 05:45:07;;;;;;;;;;;19.80;99.90;;;;;;5072980;28;19919;-62
2021/07/25 05:47:34;;;;;;;;;;;19.90;99.90;;;;;;5073386;28;19908;-58
2021/07/25 05:49:59;;;;;;;;;;;20.00;99.90;;;;;;5054784;28;20378;-61
2021/07/25 05:52:24;;;;;;;;;;;20.10;99.90;;;;;;5055019;28;19915;-62
2021/07/25 05:54:50;;;;;;;;;;;20.20;99.90;;;;;;5073051;28;20363;-62
2021/07/25 05:57:15;;;;;;;;;;;20.30;99.90;;;;;;5055219;28;19909;-62
2021/07/25 05:59:41;;;;;;;;;;;20.40;99.90;;;;;;5073355;28;19999;-63
2021/07/25 06:02:06;;;;;;;;;;;20.40;99.90;;;;;;5054917;28;19995;-60
2021/07/25 06:04:32;;;;;;;;;;;20.50;99.90;;;;;;5072727;28;19962;-61
2021/07/25 06:06:57;;;;;;;;;;;20.50;99.90;;;;;;5054755;28;19931;-63
2021/07/25 06:09:26;;;;;;;;;;;20.60;99.90;;;;;;5054905;28;19909;-61
2021/07/25 06:11:51;;;;;;;;;;;20.60;99.90;;;;;;5054056;28;19908;-62
2021/07/25 06:14:17;;;;;;;;;;;20.60;99.90;;;;;;5072268;28;20003;-62
2021/07/25 06:16:43;;;;;;;;;;;20.70;99.90;;;;;;5054820;28;19954;-62
2021/07/25 06:19:08;;;;;;;;;;;20.80;99.90;;;;;;5072626;28;19915;-62
2021/07/25 06:21:34;;;;;;;;;;;20.80;99.90;;;;;;5054627;28;20003;-62
2021/07/25 06:23:59;;;;;;;;;;;20.90;99.90;;;;;;5072341;28;20295;-62
2021/07/25 06:26:25;;;;;;;;;;;21.00;99.90;;;;;;5072436;28;19908;-56
2021/07/25 06:28:51;;;;;;;;;;;21.00;99.90;;;;;;5072748;28;19909;-62
2021/07/25 06:31:16;;;;;;;;;;;21.10;99.90;;;;;;5072363;28;19913;-62
2021/07/25 06:33:42;;;;;;;;;;;21.20;99.90;;;;;;5054152;28;19915;-62
2021/07/25 06:36:10;;;;;;;;;;;21.30;99.90;;;;;;5071878;28;19908;-62
2021/07/25 06:38:36;;;;;;;;;;;21.50;99.90;;;;;;5072554;28;19916;-63
2021/07/25 06:41:01;;;;;;;;;;;21.70;99.90;;;;;;5054019;28;19916;-62
2021/07/25 06:43:27;;;;;;;;;;;21.80;99.90;;;;;;5071983;28;19916;-63
2021/07/25 06:45:53;;;;;;;;;;;21.90;99.90;;;;;;5071937;28;20003;-62
2021/07/25 06:48:18;;;;;;;;;;;22.00;99.90;;;;;;5054113;28;19908;-62
2021/07/25 06:50:45;;;;;;;;;;;22.10;99.90;;;;;;5072003;28;20401;-60
2021/07/25 06:53:10;;;;;;;;;;;22.20;99.90;;;;;;5053966;28;19928;-63
2021/07/25 06:55:36;;;;;;;;;;;22.30;99.90;;;;;;5071961;28;19916;-61
2021/07/25 06:58:01;;;;;;;;;;;22.40;99.90;;;;;;5072144;28;19939;-62
2021/07/25 07:00:27;;;;;;;;;;;22.50;99.90;;;;;;5071727;28;19994;-62
2021/07/25 07:02:53;;;;;;;;;;;22.60;99.90;;;;;;5071770;28;19908;-62
2021/07/25 07:05:32;;;;;;;;;;;22.70;99.90;;;;;;5071289;28;19909;-62
2021/07/25 07:08:01;;;;;;;;;;;22.90;99.90;;;;;;5071607;28;19978;-61
2021/07/25 07:10:31;;;;;;;;;;;22.90;99.90;;;;;;5053609;28;19920;-59
2021/07/25 07:12:57;;;;;;;;;;;23.00;99.90;;;;;;5071137;28;20015;-62
2021/07/25 07:15:24;;;;;;;;;;;23.00;99.90;;;;;;5071204;28;19904;-62
2021/07/25 07:17:53;;;;;;;;;;;23.10;99.90;;;;;;5071523;28;19944;-61
2021/07/25 07:20:18;;;;;;;;;;;23.20;99.90;;;;;;5071530;28;19912;-61
2021/07/25 07:22:50;;;;;;;;;;;23.20;99.90;;;;;;5052341;28;19985;-61
2021/07/25 07:25:15;;;;;;;;;;;23.30;99.90;;;;;;5053407;28;19909;-62
2021/07/25 07:27:41;;;;;;;;;;;23.40;99.90;;;;;;5071163;28;19912;-59
2021/07/25 07:30:07;;;;;;;;;;;23.50;99.90;;;;;;5071132;28;19919;-61
2021/07/25 07:32:32;;;;;;;;;;;23.60;99.90;;;;;;5070932;28;19939;-59
2021/07/25 07:34:58;;;;;;;;;;;23.80;99.90;;;;;;5070679;28;19908;-61
2021/07/25 07:37:23;;;;;;;;;;;23.90;99.90;;;;;;5071014;28;20035;-59
2021/07/25 07:39:49;;;;;;;;;;;23.90;99.90;;;;;;5070905;28;19908;-62
2021/07/25 07:42:14;;;;;;;;;;;24.10;99.90;;;;;;5070836;28;19909;-59
2021/07/25 07:44:40;;;;;;;;;;;24.20;99.90;;;;;;5052417;28;20124;-61
2021/07/25 07:47:06;;;;;;;;;;;24.40;99.90;;;;;;5070900;28;19909;-62
2021/07/25 07:49:31;;;;;;;;;;;24.50;99.90;;;;;;5069545;28;19920;-61
2021/07/25 07:51:57;;;;;;;;;;;24.60;99.90;;;;;;5068302;28;19942;-61
2021/07/25 07:54:22;;;;;;;;;;;24.70;99.90;;;;;;5068519;28;19956;-62
2021/07/25 07:56:48;;;;;;;;;;;24.90;99.90;;;;;;5070416;28;19908;-61
2021/07/25 07:59:14;;;;;;;;;;;25.00;99.90;;;;;;5070815;28;19915;-61
2021/07/25 08:01:39;;;;;;;;;;;25.20;99.90;;;;;;5070600;28;19908;-62
2021/07/25 08:04:05;;;;;;;;;;;25.30;99.90;;;;;;5052382;28;19914;-62
2021/07/25 08:06:30;;;;;;;;;;;25.30;99.90;;;;;;5070470;28;19912;-56
2021/07/25 08:08:56;;;;;;;;;;;25.50;99.90;;;;;;5052581;28;19915;-61
2021/07/25 08:11:21;;;;;;;;;;;25.50;99.90;;;;;;5052323;28;19913;-62
2021/07/25 08:13:47;;;;;;;;;;;25.60;99.90;;;;;;5257346;22;19941;-59
2021/07/25 08:16:12;;;;;;;;;;;25.70;99.90;;;;;;5105907;28;19999;-59
2021/07/25 08:18:38;;;;;;;;;;;25.70;99.90;;;;;;5104350;28;19954;-57
2021/07/25 08:21:04;;;;;;;;;;;25.80;99.90;;;;;;5092386;28;19908;-57
2021/07/25 08:23:30;;;;;;;;;;;25.90;99.90;;;;;;5105246;28;19908;-57
2021/07/25 08:25:55;;;;;;;;;;;26.10;99.90;;;;;;5099871;28;19935;-57
2021/07/25 08:28:21;;;;;;;;;;;26.30;99.90;;;;;;5102607;28;19907;-55
2021/07/25 08:30:46;;;;;;;;;;;26.40;99.90;;;;;;5083036;28;19941;-57
2021/07/25 08:33:12;;;;;;;;;;;26.50;99.90;;;;;;5101500;28;19915;-57
2021/07/25 08:35:37;;;;;;;;;;;26.60;99.90;;;;;;5101878;28;19912;-58
2021/07/25 08:38:03;;;;;;;;;;;26.70;99.90;;;;;;5101519;28;19984;-58
2021/07/25 08:40:29;;;;;;;;;;;26.80;99.90;;;;;;5102361;28;19918;-59
2021/07/25 08:43:09;;;;;;;;;;;26.90;99.90;;;;;;5074582;28;20371;-59
2021/07/25 08:45:35;;;;;;;;;;;27.00;99.90;;;;;;5089757;28;19908;-57
2021/07/25 08:48:22;;;;;;;;;;;27.10;99.90;;;;;;5100302;28;19923;-58
2021/07/25 08:50:56;;;;;;;;;;;27.30;99.90;;;;;;5101599;28;19942;-59
2021/07/25 08:53:24;;;;;;;;;;;27.50;99.90;;;;;;5095733;28;19927;-59
2021/07/25 08:55:49;;;;;;;;;;;27.70;99.90;;;;;;5105898;28;19999;-59
2021/07/25 08:58:18;;;;;;;;;;;27.80;99.00;;;;;;5093583;28;19958;-59
2021/07/25 09:00:46;;;;;;;;;;;27.90;99.90;;;;;;5098386;28;19908;-57
2021/07/25 09:03:12;;;;;;;;;;;28.00;99.40;;;;;;5104514;28;20545;-57
2021/07/25 09:05:37;;;;;;;;;;;28.10;99.10;;;;;;5079967;28;20007;-59
2021/07/25 09:08:03;;;;;;;;;;;28.20;98.00;;;;;;5105550;28;20013;-57
2021/07/25 09:10:28;;;;;;;;;;;28.30;99.60;;;;;;5098109;28;19916;-58
2021/07/25 09:12:55;;;;;;;;;;;28.40;98.10;;;;;;5105855;28;19907;-60
2021/07/25 09:15:31;;;;;;;;;;;28.50;97.10;;;;;;5097775;28;19973;-59
2021/07/25 09:17:57;;;;;;;;;;;28.60;99.10;;;;;;5099482;28;20389;-59
2021/07/25 09:20:32;;;;;;;;;;;28.70;98.90;;;;;;5103761;28;19955;-58
2021/07/25 09:23:12;;;;;;;;;;;28.80;97.40;;;;;;5099719;28;19909;-58
2021/07/25 09:25:39;;;;;;;;;;;28.90;96.90;;;;;;5102590;28;20504;-59
2021/07/25 09:28:11;;;;;;;;;;;29.00;96.00;;;;;;5100651;28;19908;-59
2021/07/25 09:30:37;;;;;;;;;;;29.00;95.30;;;;;;5085198;28;19912;-58
2021/07/25 09:33:19;;;;;;;;;;;29.00;95.70;;;;;;5100268;28;19915;-58
2021/07/25 09:35:44;;;;;;;;;;;29.00;96.90;;;;;;5099571;28;20323;-59
2021/07/25 09:38:10;;;;;;;;;;;29.20;96.40;;;;;;5100431;28;20006;-58
2021/07/25 09:40:37;;;;;;;;;;;29.40;95.50;;;;;;5101744;28;19928;-58
2021/07/25 09:43:08;;;;;;;;;;;29.40;95.00;;;;;;5100639;28;19908;-59
2021/07/25 09:45:54;;;;;;;;;;;29.50;95.00;;;;;;5102457;28;19983;-59
2021/07/25 09:48:25;;;;;;;;;;;29.60;95.70;;;;;;5095832;28;19951;-58
2021/07/25 09:50:51;;;;;;;;;;;29.70;95.70;;;;;;5105446;28;20440;-59
2021/07/25 09:53:17;;;;;;;;;;;29.60;94.10;;;;;;5104786;28;19914;-59
2021/07/25 09:55:43;;;;;;;;;;;29.70;93.60;;;;;;5105186;28;19908;-56
2021/07/25 09:58:08;;;;;;;;;;;29.70;94.30;;;;;;5102472;28;19915;-60
2021/07/25 10:00:38;;;;;;;;;;;29.80;94.50;;;;;;5105654;28;19908;-59
2021/07/25 10:03:24;;;;;;;;;;;29.80;92.60;;;;;;5102957;28;20426;-58
2021/07/25 10:05:52;;;;;;;;;;;29.80;92.50;;;;;;5089340;28;20010;-58
2021/07/25 10:08:19;;;;;;;;;;;29.80;92.90;;;;;;5097481;28;20502;-58
2021/07/25 10:10:46;;;;;;;;;;;29.90;93.30;;;;;;5090493;28;19957;-59
2021/07/25 10:13:19;;;;;;;;;;;30.00;93.40;;;;;;5101352;28;20071;-59
2021/07/25 10:15:52;;;;;;;;;;;30.10;92.10;;;;;;5101214;28;20389;-59
2021/07/25 10:18:19;;;;;;;;;;;30.30;92.00;;;;;;5095866;28;19916;-59
2021/07/25 10:20:45;;;;;;;;;;;30.30;91.30;;;;;;5101805;28;20670;-60
2021/07/25 10:23:14;;;;;;;;;;;30.30;91.10;;;;;;5108290;28;20011;-57
2021/07/25 10:25:39;;;;;;;;;;;30.30;90.00;;;;;;5082811;28;19939;-60
2021/07/25 10:28:05;;;;;;;;;;;30.20;90.50;;;;;;5091018;28;20361;-59
2021/07/25 10:30:30;;;;;;;;;;;30.10;90.30;;;;;;5101120;28;19924;-59
2021/07/25 10:32:57;;;;;;;;;;;30.10;90.10;;;;;;5102001;28;19908;-60
2021/07/25 10:35:25;;;;;;;;;;;30.20;91.00;;;;;;5109474;28;19911;-60
2021/07/25 10:37:51;;;;;;;;;;;30.10;90.10;;;;;;5101496;28;19908;-60
2021/07/25 10:40:17;;;;;;;;;;;30.10;89.20;;;;;;5108122;28;19916;-61
2021/07/25 10:42:48;;;;;;;;;;;30.20;90.50;;;;;;5100719;28;20318;-60
2021/07/25 10:45:14;;;;;;;;;;;30.20;91.10;;;;;;5108679;28;20704;-58
2021/07/25 10:47:39;;;;;;;;;;;30.40;90.60;;;;;;5100923;28;19912;-61
2021/07/25 10:50:16;;;;;;;;;;;30.40;87.90;;;;;;5085122;28;19941;-59
2021/07/25 10:52:44;;;;;;;;;;;30.50;88.30;;;;;;5104309;28;20446;-60
2021/07/25 10:55:10;;;;;;;;;;;30.70;88.50;;;;;;5103064;28;20575;-57
2021/07/25 10:57:54;;;;;;;;;;;30.50;84.00;;;;;;5103771;28;19923;-57
2021/07/25 11:00:37;;;;;;;;;;;30.50;86.40;;;;;;5094852;28;19933;-59
2021/07/25 11:03:03;;;;;;;;;;;30.60;87.10;;;;;;5102023;28;20263;-57
2021/07/25 11:05:29;;;;;;;;;;;30.60;83.80;;;;;;5104060;28;19963;-58
2021/07/25 11:07:58;;;;;;;;;;;30.50;84.00;;;;;;5103126;28;20334;-60
2021/07/25 11:10:34;;;;;;;;;;;30.30;83.90;;;;;;5104198;28;19995;-59
2021/07/25 11:13:00;;;;;;;;;;;30.40;87.50;;;;;;5102256;28;19960;-59
2021/07/25 11:15:28;;;;;;;;;;;30.40;86.60;;;;;;5099953;28;19916;-59
2021/07/25 11:17:58;;;;;;;;;;;30.40;85.60;;;;;;5106860;28;19907;-59
2021/07/25 11:20:29;;;;;;;;;;;30.50;86.80;;;;;;5100088;28;19931;-58
2021/07/25 11:22:55;;;;;;;;;;;30.50;85.10;;;;;;5107335;28;19915;-57
2021/07/25 11:25:47;;;;;;;;;;;30.60;84.90;;;;;;5099618;28;20057;-57
2021/07/25 11:28:32;;;;;;;;;;;30.70;84.80;;;;;;5103862;28;19908;-59
2021/07/25 11:31:00;;;;;;;;;;;30.70;85.00;;;;;;5098333;28;20482;-59
2021/07/25 11:33:44;;;;;;;;;;;30.60;84.10;;;;;;5103261;28;19916;-59
2021/07/25 11:36:14;;;;;;;;;;;30.60;83.50;;;;;;5101597;28;19984;-58
2021/07/25 11:38:40;;;;;;;;;;;30.70;84.20;;;;;;5103493;28;19908;-59
2021/07/25 11:41:07;;;;;;;;;;;30.60;82.10;;;;;;5100648;28;19914;-60
2021/07/25 11:43:47;;;;;;;;;;;30.60;83.90;;;;;;5103167;28;19908;-59
2021/07/25 11:46:22;;;;;;;;;;;30.60;83.10;;;;;;5102563;28;19907;-59
2021/07/25 11:48:47;;;;;;;;;;;30.60;81.70;;;;;;5103442;28;19931;-59
2021/07/25 11:51:20;;;;;;;;;;;30.50;82.70;;;;;;5099428;28;19963;-58
2021/07/25 11:53:46;;;;;;;;;;;30.30;81.90;;;;;;5106828;28;19912;-58
2021/07/25 11:56:12;;;;;;;;;;;30.20;82.80;;;;;;5099423;28;19913;-59
2021/07/25 11:58:37;;;;;;;;;;;30.20;81.00;;;;;;5099550;28;20285;-59
2021/07/25 12:01:09;;;;;;;;;;;30.10;83.60;;;;;;5105336;28;19907;-59
2021/07/25 12:03:34;;;;;;;;;;;30.10;83.40;;;;;;5099064;28;19961;-59
2021/07/25 12:06:10;;;;;;;;;;;30.20;84.30;;;;;;5087599;28;19998;-58
2021/07/25 12:08:35;;;;;;;;;;;30.30;82.40;;;;;;5098367;28;19915;-59
2021/07/25 12:11:04;;;;;;;;;;;30.50;82.70;;;;;;5106991;28;19920;-59
2021/07/25 12:13:29;;;;;;;;;;;30.60;81.90;;;;;;5098692;28;19915;-59
2021/07/25 12:16:04;;;;;;;;;;;30.70;80.90;;;;;;5099825;28;19916;-61
2021/07/25 12:18:30;;;;;;;;;;;30.80;80.00;;;;;;5103243;28;19961;-58
2021/07/25 12:20:55;;;;;;;;;;;30.80;81.00;;;;;;5099809;28;19916;-58
2021/07/25 12:23:34;;;;;;;;;;;30.60;78.20;;;;;;5105208;28;19912;-58
2021/07/25 12:26:00;;;;;;;;;;;30.30;79.20;;;;;;5098155;28;19914;-59
2021/07/25 12:28:27;;;;;;;;;;;30.30;81.40;;;;;;5105248;28;19908;-60
2021/07/25 12:30:59;;;;;;;;;;;30.50;84.20;;;;;;5099194;28;19912;-59
2021/07/25 12:33:27;;;;;;;;;;;30.80;82.90;;;;;;5102228;28;20006;-59
2021/07/25 12:35:52;;;;;;;;;;;31.00;79.20;;;;;;5081533;28;19915;-57
2021/07/25 12:38:20;;;;;;;;;;;31.10;79.60;;;;;;5102354;28;19912;-56
2021/07/25 12:40:52;;;;;;;;;;;30.90;79.60;;;;;;5101324;28;19954;-58
2021/07/25 12:43:19;;;;;;;;;;;30.70;79.90;;;;;;5086892;28;20338;-60
2021/07/25 12:45:45;;;;;;;;;;;30.50;78.30;;;;;;5101970;28;19928;-59
2021/07/25 12:48:24;;;;;;;;;;;30.30;79.20;;;;;;5083648;28;19916;-60
2021/07/25 12:51:32;;;;;;;;;;;30.40;79.50;;;;;;5099954;28;19916;-58
2021/07/25 12:53:42;;;;;;;;;;;30.40;79.50;;;;;;5098529;28;20389;-60
2021/07/25 12:56:08;;;;;;;;;;;30.30;81.00;;;;;;5099424;28;19998;-60
2021/07/25 12:58:41;;;;;;;;;;;30.10;79.60;;;;;;5098607;28;19912;-60
2021/07/25 13:03:57;;;;;;;;;;;29.90;81.70;;;;;;5096827;28;20395;-60
2021/07/25 13:06:24;;;;;;;;;;;29.90;81.80;;;;;;5104448;28;20097;-61
2021/07/25 13:08:50;;;;;;;;;;;29.90;80.30;;;;;;5098790;28;20422;-60
2021/07/25 13:11:17;;;;;;;;;;;29.80;79.30;;;;;;5090785;28;20306;-61
2021/07/25 13:13:45;;;;;;;;;;;29.70;79.30;;;;;;5097887;28;19908;-59
2021/07/25 13:16:11;;;;;;;;;;;29.70;81.70;;;;;;5101602;28;19920;-61
2021/07/25 13:18:38;;;;;;;;;;;29.80;80.70;;;;;;5083700;28;19997;-59
2021/07/25 13:21:03;;;;;;;;;;;29.80;80.20;;;;;;5103727;28;19915;-60
2021/07/25 13:23:29;;;;;;;;;;;29.90;79.50;;;;;;5107546;28;19912;-58
2021/07/25 13:25:54;;;;;;;;;;;29.90;79.50;;;;;;5102889;28;20309;-59
2021/07/25 13:28:20;;;;;;;;;;;29.90;79.60;;;;;;5109753;28;19908;-60
2021/07/25 13:30:45;;;;;;;;;;;29.90;81.70;;;;;;5102261;28;19916;-60
2021/07/25 13:33:10;;;;;;;;;;;29.90;82.40;;;;;;5105083;28;20010;-61
2021/07/25 13:35:36;;;;;;;;;;;29.80;80.50;;;;;;5104847;28;19920;-60
2021/07/25 13:38:01;;;;;;;;;;;29.80;80.10;;;;;;5103840;28;20011;-60
2021/07/25 13:40:27;;;;;;;;;;;29.80;82.40;;;;;;5107879;28;20366;-61
2021/07/25 13:42:52;;;;;;;;;;;29.80;82.60;;;;;;5102348;28;19916;-61
2021/07/25 13:45:18;;;;;;;;;;;29.90;82.70;;;;;;5091346;28;19914;-60
2021/07/25 13:47:44;;;;;;;;;;;29.90;83.70;;;;;;5102306;28;19908;-59
2021/07/25 13:50:10;;;;;;;;;;;30.00;82.40;;;;;;5104695;28;19919;-60
2021/07/25 13:52:35;;;;;;;;;;;30.10;82.20;;;;;;5105196;28;20354;-60
2021/07/25 13:55:01;;;;;;;;;;;30.30;80.90;;;;;;5104307;28;19912;-62
2021/07/25 13:57:26;;;;;;;;;;;30.50;82.10;;;;;;5105439;28;19908;-60
2021/07/25 13:59:52;;;;;;;;;;;30.70;81.10;;;;;;5102991;28;20258;-59
2021/07/25 14:02:17;;;;;;;;;;;30.80;80.70;;;;;;5105340;28;20415;-59
2021/07/25 14:04:43;;;;;;;;;;;30.90;79.10;;;;;;5104234;28;20354;-59
2021/07/25 14:07:08;;;;;;;;;;;30.80;77.20;;;;;;5086096;28;19908;-59
2021/07/25 14:09:34;;;;;;;;;;;30.50;76.30;;;;;;5086891;28;19907;-60
2021/07/25 14:11:59;;;;;;;;;;;30.40;79.10;;;;;;5104408;28;19912;-60
2021/07/25 14:14:25;;;;;;;;;;;30.40;80.60;;;;;;5104861;28;19916;-60
2021/07/25 14:16:51;;;;;;;;;;;30.40;82.90;;;;;;5102881;28;19911;-59
2021/07/25 14:19:17;;;;;;;;;;;30.40;81.60;;;;;;5105086;28;19923;-61